Time;durP1;ratioP1;P1;durP2;ratioP2;P2;SDS_P1;SDS_P2;PMS_P1;PMS_P2;Temp;Humidity;BMP_temperature;BMP_pressure;BME280_temperature;BME280_humidity;BME280_pressure;Samples;Min_cycle;Max_cycle;Signal;HPM_P1;HPM_P2
2022/10/05 00:02:19;;;;;;;;;;;;;;;20.81;31.64;98683.13;4900553;29;854;-79
2022/10/05 00:04:45;;;;;;;;;;;;;;;20.79;31.92;98685.59;4863095;29;1115;-79
2022/10/05 00:07:14;;;;;;;;;;;;;;;20.90;31.84;98679.78;4844681;29;857;-79
2022/10/05 00:09:40;;;;;;;;;;;;;;;20.89;31.98;98683.06;4844419;29;813;-80
2022/10/05 00:12:16;;;;;;;;;;;;;;;20.74;32.05;98686.06;4847371;29;1915;-79
2022/10/05 00:14:42;;;;;;;;;;;;;;;21.20;32.19;98686.69;4878266;29;1376;-79
2022/10/05 00:17:17;;;;;;;;;;;;;;;21.18;31.97;98689.91;4862792;29;856;-80
2022/10/05 00:19:43;;;;;;;;;;;;;;;21.07;31.58;98683.59;4878173;29;1152;-79
2022/10/05 00:22:15;;;;;;;;;;;;;;;20.95;31.90;98684.19;4863058;29;875;-79
2022/10/05 00:24:41;;;;;;;;;;;;;;;21.02;31.32;98687.69;4865905;29;1264;-79
2022/10/05 00:27:11;;;;;;;;;;;;;;;20.59;31.94;98695.13;4881351;29;812;-79
2022/10/05 00:29:37;;;;;;;;;;;;;;;20.66;32.01;98687.34;4866030;29;1222;-79
2022/10/05 00:32:03;;;;;;;;;;;;;;;20.67;32.01;98686.13;4880820;29;1974;-79
2022/10/05 00:34:28;;;;;;;;;;;;;;;20.79;31.57;98696.91;4880970;29;1124;-79
2022/10/05 00:36:54;;;;;;;;;;;;;;;20.78;31.96;98709.44;4918235;29;888;-79
2022/10/05 00:39:19;;;;;;;;;;;;;;;20.94;31.57;98708.84;4918546;29;807;-78
2022/10/05 00:41:51;;;;;;;;;;;;;;;21.20;31.03;98704.44;4902601;29;864;-79
2022/10/05 00:44:23;;;;;;;;;;;;;;;21.26;30.82;98702.75;4925494;29;935;-78
2022/10/05 00:46:53;;;;;;;;;;;;;;;21.00;31.02;98706.34;4905705;29;941;-80
2022/10/05 00:49:18;;;;;;;;;;;;;;;20.91;31.03;98703.22;4921888;29;1106;-79
2022/10/05 00:51:46;;;;;;;;;;;;;;;21.00;30.72;98706.34;4937388;29;1968;-79
2022/10/05 00:54:21;;;;;;;;;;;;;;;21.22;30.75;98712.50;4938079;29;749;-79
2022/10/05 00:57:09;;;;;;;;;;;;;;;21.29;30.66;98707.53;4904042;29;859;-79
2022/10/05 00:59:35;;;;;;;;;;;;;;;21.11;30.50;98707.00;4935518;29;1051;-79
2022/10/05 01:02:01;;;;;;;;;;;;;;;20.85;31.03;98702.09;4935227;29;725;-78
2022/10/05 01:04:56;;;;;;;;;;;;;;;20.88;30.72;98709.72;4934960;29;1204;-79
2022/10/05 01:07:39;;;;;;;;;;;;;;;20.89;30.88;98717.00;4880584;29;1103;-79
2022/10/05 01:10:23;;;;;;;;;;;;;;;20.96;30.62;98714.06;4862099;29;1366;-79
2022/10/05 01:12:52;;;;;;;;;;;;;;;20.87;31.21;98720.22;4862082;29;1914;-79
2022/10/05 01:15:23;;;;;;;;;;;;;;;21.29;30.21;98712.41;4862287;29;1301;-79
2022/10/05 01:17:52;;;;;;;;;;;;;;;21.20;30.14;98715.78;4862142;29;1052;-79
2022/10/05 01:20:18;;;;;;;;;;;;;;;21.08;30.47;98724.81;4862593;29;1234;-79
2022/10/05 01:22:43;;;;;;;;;;;;;;;20.85;30.91;98717.03;4862383;29;879;-79
2022/10/05 01:25:31;;;;;;;;;;;;;;;20.84;30.47;98720.28;4862295;29;1119;-79
2022/10/05 01:27:59;;;;;;;;;;;;;;;20.75;30.79;98724.41;4825492;29;993;-79
2022/10/05 01:30:25;;;;;;;;;;;;;;;21.13;30.45;98721.50;4825270;29;1088;-78
2022/10/05 01:32:50;;;;;;;;;;;;;;;21.32;29.99;98715.22;4810107;29;1967;-79
2022/10/05 01:35:34;;;;;;;;;;;;;;;21.12;30.19;98724.78;4824950;29;1193;-79
2022/10/05 01:38:09;;;;;;;;;;;;;;;20.74;30.76;98722.03;4825234;29;933;-78
2022/10/05 01:40:34;;;;;;;;;;;;;;;20.81;30.40;98728.38;4830622;29;948;-79
2022/10/05 01:43:07;;;;;;;;;;;;;;;20.93;30.40;98738.34;4831910;29;1288;-78
2022/10/05 01:45:36;;;;;;;;;;;;;;;21.08;30.38;98736.13;4877599;29;1288;-79
2022/10/05 01:48:01;;;;;;;;;;;;;;;21.32;30.05;98734.25;4864397;29;799;-79
2022/10/05 01:50:28;;;;;;;;;;;;;;;21.04;30.46;98736.19;4880646;29;840;-79
2022/10/05 01:53:04;;;;;;;;;;;;;;;20.92;30.35;98750.06;4880451;29;1906;-79
2022/10/05 01:55:35;;;;;;;;;;;;;;;20.90;30.26;98746.88;4880682;29;865;-79
2022/10/05 01:58:10;;;;;;;;;;;;;;;20.76;30.25;98742.97;4865229;29;1103;-79
2022/10/05 02:00:48;;;;;;;;;;;;;;;20.69;30.62;98747.94;4880572;29;756;-79
2022/10/05 02:03:18;;;;;;;;;;;;;;;21.02;30.66;98740.66;4880832;29;790;-79
2022/10/05 02:05:49;;;;;;;;;;;;;;;21.24;30.35;98750.50;4927189;29;1273;-79
2022/10/05 02:08:18;;;;;;;;;;;;;;;21.17;30.12;98747.75;4921605;29;1216;-79
2022/10/05 02:10:48;;;;;;;;;;;;;;;20.88;30.51;98743.66;4936759;29;1907;-78
2022/10/05 02:13:14;;;;;;;;;;;;;;;20.73;30.82;98749.50;4936942;29;950;-78
2022/10/05 02:15:51;;;;;;;;;;;;;;;20.79;30.39;98758.31;4937158;29;1248;-79
2022/10/05 02:18:18;;;;;;;;;;;;;;;20.92;30.47;98761.41;4936800;29;799;-79
2022/10/05 02:20:44;;;;;;;;;;;;;;;20.96;30.62;98762.16;4936802;29;925;-79
2022/10/05 02:23:13;;;;;;;;;;;;;;;20.95;30.28;98767.03;4936890;29;1121;-79
2022/10/05 02:25:39;;;;;;;;;;;;;;;21.22;29.93;98769.91;4918035;29;1173;-79
2022/10/05 02:28:07;;;;;;;;;;;;;;;21.14;29.87;98768.41;4902017;29;1074;-79
2022/10/05 02:30:36;;;;;;;;;;;;;;;21.06;30.01;98767.69;4901899;29;1450;-79
2022/10/05 02:33:14;;;;;;;;;;;;;;;21.01;30.29;98770.97;4901906;29;1903;-79
2022/10/05 02:35:40;;;;;;;;;;;;;;;20.68;30.44;98772.59;4901415;29;1346;-79
2022/10/05 02:38:20;;;;;;;;;;;;;;;20.88;30.63;98778.44;4902217;29;1232;-79
2022/10/05 02:40:48;;;;;;;;;;;;;;;21.21;29.90;98778.84;4917696;29;1237;-79
2022/10/05 02:43:33;;;;;;;;;;;;;;;21.09;29.95;98780.19;4917942;29;1247;-79
2022/10/05 02:46:02;;;;;;;;;;;;;;;20.94;30.04;98788.06;4901898;29;1157;-79
2022/10/05 02:48:41;;;;;;;;;;;;;;;21.01;29.79;98787.16;4917453;29;1279;-79
2022/10/05 02:51:33;;;;;;;;;;;;;;;20.81;30.50;98779.28;4917491;29;1919;-79
2022/10/05 02:54:17;;;;;;;;;;;;;;;20.73;30.36;98783.44;4830392;29;1206;-79
2022/10/05 02:57:01;;;;;;;;;;;;;;;20.97;30.34;98783.56;4845591;29;778;-79
2022/10/05 02:59:45;;;;;;;;;;;;;;;21.26;29.73;98789.69;4845528;29;922;-80
2022/10/05 03:02:11;;;;;;;;;;;;;;;20.94;30.47;98781.59;4860738;29;1070;-79
2022/10/05 03:04:39;;;;;;;;;;;;;;;21.00;30.37;98785.56;4846015;29;1282;-79
2022/10/05 03:07:11;;;;;;;;;;;;;;;20.97;30.75;98786.41;4845795;29;844;-79
2022/10/05 03:09:55;;;;;;;;;;;;;;;20.79;31.30;98792.25;4861175;29;1189;-79
2022/10/05 03:12:24;;;;;;;;;;;;;;;21.16;30.78;98793.44;4860785;29;1980;-79
2022/10/05 03:14:57;;;;;;;;;;;;;;;21.35;30.63;98800.50;4860953;29;1192;-79
2022/10/05 03:17:24;;;;;;;;;;;;;;;20.91;31.23;98800.19;4860761;29;1228;-79
2022/10/05 03:19:56;;;;;;;;;;;;;;;20.86;30.88;98802.69;4845309;29;1233;-79
2022/10/05 03:22:21;;;;;;;;;;;;;;;20.85;31.36;98799.06;4860901;29;1214;-79
2022/10/05 03:24:55;;;;;;;;;;;;;;;20.88;31.25;98805.88;4860895;29;1192;-79
2022/10/05 03:27:30;;;;;;;;;;;;;;;20.81;31.62;98818.88;4876621;29;1279;-78
2022/10/05 03:29:59;;;;;;;;;;;;;;;20.88;31.38;98817.19;4888222;29;895;-78
2022/10/05 03:32:31;;;;;;;;;;;;;;;20.91;31.40;98819.19;4936717;29;1906;-79
2022/10/05 03:35:06;;;;;;;;;;;;;;;21.18;31.40;98814.44;4936957;29;1206;-78
2022/10/05 03:37:41;;;;;;;;;;;;;;;21.28;31.07;98816.34;4936735;29;1180;-79
2022/10/05 03:40:26;;;;;;;;;;;;;;;21.31;31.06;98818.34;4936608;29;1335;-79
2022/10/05 03:43:16;;;;;;;;;;;;;;;21.21;31.16;98829.78;4913916;29;1523;-79
2022/10/05 03:46:00;;;;;;;;;;;;;;;21.03;31.21;98829.97;4901588;29;1357;-78
2022/10/05 03:48:26;;;;;;;;;;;;;;;20.78;31.78;98836.72;4901791;29;1177;-79
2022/10/05 03:51:12;;;;;;;;;;;;;;;20.80;31.67;98834.25;4901700;29;1914;-79
2022/10/05 03:53:42;;;;;;;;;;;;;;;21.01;31.93;98833.22;4901432;29;1144;-79
2022/10/05 03:56:08;;;;;;;;;;;;;;;21.24;31.67;98846.72;4901920;29;1253;-79
2022/10/05 03:58:41;;;;;;;;;;;;;;;21.38;31.33;98833.66;4912008;29;1536;-79
2022/10/05 04:01:14;;;;;;;;;;;;;;;21.09;31.69;98836.78;4919235;29;1165;-79
2022/10/05 04:03:40;;;;;;;;;;;;;;;20.97;31.74;98840.16;4903876;29;1110;-79
2022/10/05 04:06:07;;;;;;;;;;;;;;;20.79;31.92;98848.84;4903636;29;1074;-79
2022/10/05 04:08:36;;;;;;;;;;;;;;;20.85;31.92;98846.34;4887502;29;1458;-79
2022/10/05 04:11:06;;;;;;;;;;;;;;;20.97;31.83;98848.63;4913395;29;1891;-79
2022/10/05 04:13:50;;;;;;;;;;;;;;;20.87;31.94;98849.56;4922494;29;1320;-79
2022/10/05 04:16:16;;;;;;;;;;;;;;;21.13;31.94;98851.69;4937870;29;1228;-79
2022/10/05 04:18:43;;;;;;;;;;;;;;;21.29;31.47;98851.91;4937349;29;1517;-79
2022/10/05 04:21:28;;;;;;;;;;;;;;;21.04;31.68;98854.25;4937629;29;1513;-79
2022/10/05 04:23:54;;;;;;;;;;;;;;;20.92;32.00;98860.41;4916794;29;1548;-79
2022/10/05 04:26:23;;;;;;;;;;;;;;;20.80;32.22;98868.19;4918898;29;1142;-79
2022/10/05 04:28:51;;;;;;;;;;;;;;;20.92;32.12;98871.72;4869474;29;1645;-79
2022/10/05 04:31:23;;;;;;;;;;;;;;;20.85;32.04;98868.97;4837637;29;1980;-80
2022/10/05 04:33:51;;;;;;;;;;;;;;;20.80;32.22;98873.84;4862346;29;1757;-78
2022/10/05 04:36:35;;;;;;;;;;;;;;;20.70;32.17;98874.75;4862612;29;1382;-79
2022/10/05 04:39:10;;;;;;;;;;;;;;;20.63;32.27;98883.31;4862671;29;1258;-79
2022/10/05 04:41:43;;;;;;;;;;;;;;;21.04;32.10;98888.19;4862152;29;1175;-79
2022/10/05 04:44:15;;;;;;;;;;;;;;;21.22;31.70;98888.78;4862322;29;1092;-79
2022/10/05 04:46:41;;;;;;;;;;;;;;;21.21;31.92;98889.22;4859201;29;1816;-79
2022/10/05 04:49:11;;;;;;;;;;;;;;;21.23;31.37;98887.56;4862144;29;971;-79
2022/10/05 04:51:39;;;;;;;;;;;;;;;21.10;31.64;98900.66;4862414;29;1964;-79
2022/10/05 04:54:09;;;;;;;;;;;;;;;21.01;31.66;98906.78;4869314;29;1229;-79
2022/10/05 04:56:35;;;;;;;;;;;;;;;20.89;31.93;98909.34;4899492;29;1351;-79
2022/10/05 04:59:04;;;;;;;;;;;;;;;21.10;32.41;98908.34;4899658;29;1209;-78
2022/10/05 05:01:35;;;;;;;;;;;;;;;21.30;31.61;98904.50;4899660;29;1114;-79
2022/10/05 05:04:16;;;;;;;;;;;;;;;21.21;31.41;98915.50;4899963;29;1169;-79
2022/10/05 05:06:48;;;;;;;;;;;;;;;21.13;31.48;98919.59;4925657;29;1277;-79
2022/10/05 05:09:29;;;;;;;;;;;;;;;21.01;31.56;98917.31;4938155;29;1058;-79
2022/10/05 05:11:54;;;;;;;;;;;;;;;21.03;31.50;98929.81;4937877;29;1914;-79
2022/10/05 05:14:20;;;;;;;;;;;;;;;20.93;31.66;98932.72;4938663;29;1249;-79
2022/10/05 05:17:00;;;;;;;;;;;;;;;21.04;31.61;98927.81;4938507;29;1142;-79
2022/10/05 05:19:31;;;;;;;;;;;;;;;20.79;32.21;98933.69;4938706;29;1320;-79
2022/10/05 05:22:00;;;;;;;;;;;;;;;20.63;32.44;98942.69;4939985;29;1453;-79
2022/10/05 05:24:40;;;;;;;;;;;;;;;20.76;32.24;98943.78;4941314;29;1496;-79
2022/10/05 05:27:26;;;;;;;;;;;;;;;20.91;32.60;98947.31;4941795;29;1294;-79
2022/10/05 05:29:52;;;;;;;;;;;;;;;21.11;32.07;98944.69;4943085;29;725;-78
2022/10/05 05:32:20;;;;;;;;;;;;;;;21.14;31.67;98948.72;4941359;29;1914;-79
2022/10/05 05:34:56;;;;;;;;;;;;;;;21.25;31.56;98961.56;4926120;29;1300;-80
2022/10/05 05:37:25;;;;;;;;;;;;;;;20.96;31.65;98961.00;4929275;29;1281;-79
2022/10/05 05:40:05;;;;;;;;;;;;;;;20.85;31.90;98974.44;4938053;29;1139;-79
2022/10/05 05:42:37;;;;;;;;;;;;;;;20.92;32.54;98967.91;4944851;29;1101;-79
2022/10/05 05:45:09;;;;;;;;;;;;;;;21.07;31.99;98977.88;4944947;29;1141;-78
2022/10/05 05:47:36;;;;;;;;;;;;;;;21.18;31.76;98972.94;4944578;29;1141;-78
2022/10/05 05:50:21;;;;;;;;;;;;;;;21.17;31.53;98981.84;4944825;29;1326;-79
2022/10/05 05:52:52;;;;;;;;;;;;;;;20.93;31.83;98989.31;4944776;29;1964;-79
2022/10/05 05:55:18;;;;;;;;;;;;;;;20.82;32.13;98989.41;4939929;29;1320;-79
2022/10/05 05:57:45;;;;;;;;;;;;;;;20.91;31.75;98992.56;4941544;29;1273;-79
2022/10/05 06:00:14;;;;;;;;;;;;;;;20.92;32.03;98999.03;4941472;29;1503;-79
2022/10/05 06:02:53;;;;;;;;;;;;;;;20.91;31.74;98994.59;4942819;29;1124;-79
2022/10/05 06:05:19;;;;;;;;;;;;;;;20.71;32.57;99000.81;4941492;29;811;-78
2022/10/05 06:07:45;;;;;;;;;;;;;;;21.22;32.09;99002.00;4941748;29;1308;-78
2022/10/05 06:10:20;;;;;;;;;;;;;;;21.28;31.65;99014.47;4941116;29;1279;-79
2022/10/05 06:12:56;;;;;;;;;;;;;;;21.08;31.84;99008.59;4941315;29;1910;-79
2022/10/05 06:15:27;;;;;;;;;;;;;;;21.08;31.77;99013.44;4941346;29;1050;-78
2022/10/05 06:17:53;;;;;;;;;;;;;;;21.08;31.62;99013.44;4940870;29;1420;-78
2022/10/05 06:20:42;;;;;;;;;;;;;;;20.88;31.78;99015.22;4936479;29;1598;-79
2022/10/05 06:23:12;;;;;;;;;;;;;;;20.80;31.99;99006.81;4902189;29;1188;-79
2022/10/05 06:25:44;;;;;;;;;;;;;;;20.81;32.26;99016.88;4886373;29;1394;-79
2022/10/05 06:28:14;;;;;;;;;;;;;;;21.00;31.56;99024.03;4886276;29;1312;-79
2022/10/05 06:30:57;;;;;;;;;;;;;;;21.08;32.46;99019.09;4887336;29;1139;-78
2022/10/05 06:33:22;;;;;;;;;;;;;;;21.30;31.64;99017.75;4885898;29;1149;-78
2022/10/05 06:36:05;;;;;;;;;;;;;;;21.12;31.75;99019.88;4901921;29;1110;-79
2022/10/05 06:38:34;;;;;;;;;;;;;;;21.04;31.74;99019.16;4898145;29;1471;-79
2022/10/05 06:41:18;;;;;;;;;;;;;;;20.95;32.00;99020.84;4883117;29;1293;-79
2022/10/05 06:44:03;;;;;;;;;;;;;;;20.91;32.20;99022.88;4867604;29;1417;-79
2022/10/05 06:46:47;;;;;;;;;;;;;;;20.73;32.55;99021.00;4882137;29;1490;-79
2022/10/05 06:49:52;;;;;;;;;;;;;;;21.09;32.24;99020.72;4874431;29;1685;-78
2022/10/05 06:52:41;;;;;;;;;;;;;;;21.39;31.66;99025.72;4845341;29;1970;-79
2022/10/05 06:55:24;;;;;;;;;;;;;;;21.12;32.19;99025.53;4845989;29;1143;-79
2022/10/05 06:57:56;;;;;;;;;;;;;;;21.11;32.19;99018.28;4830604;29;1175;-79
2022/10/05 07:00:34;;;;;;;;;;;;;;;20.84;32.48;99020.13;4868550;29;1494;-79
2022/10/05 07:03:02;;;;;;;;;;;;;;;20.97;32.08;99021.22;4882313;29;965;-79
2022/10/05 07:05:34;;;;;;;;;;;;;;;20.95;32.10;99027.31;4893071;29;1987;-79
2022/10/05 07:08:02;;;;;;;;;;;;;;;20.99;32.02;99032.94;4882643;29;828;-79
2022/10/05 07:10:32;;;;;;;;;;;;;;;20.93;32.13;99034.59;4898021;29;1242;-79
2022/10/05 07:13:17;;;;;;;;;;;;;;;21.06;32.00;99028.00;4854479;29;1904;-79
2022/10/05 07:15:48;;;;;;;;;;;;;;;21.29;32.30;99023.78;4879443;29;1141;-79
2022/10/05 07:18:26;;;;;;;;;;;;;;;21.21;32.34;99036.41;4863824;29;862;-78
2022/10/05 07:24:33;;;;;;;;;;;;;;;21.06;32.49;99041.38;4863979;29;942;-79
2022/10/05 07:27:18;;;;;;;;;;;;;;;20.93;32.45;99045.91;4842655;29;1147;-79
2022/10/05 07:29:49;;;;;;;;;;;;;;;20.71;32.84;99043.22;4839195;29;1153;-79
2022/10/05 07:32:19;;;;;;;;;;;;;;;20.84;32.57;99048.41;4845164;29;1976;-79
2022/10/05 07:34:46;;;;;;;;;;;;;;;20.79;32.59;99053.28;4845123;29;778;-79
2022/10/05 07:43:38;;;;;;;;;;;;;;;21.16;33.03;99054.63;4873287;29;939;-79
2022/10/05 07:46:10;;;;;;;;;;;;;;;21.46;32.26;99048.34;4881361;29;1204;-79
2022/10/05 07:48:46;;;;;;;;;;;;;;;21.14;32.56;99051.41;4882253;29;713;-79
2022/10/05 07:51:15;;;;;;;;;;;;;;;20.78;33.06;99056.53;4881819;29;1919;-79
2022/10/05 07:54:04;;;;;;;;;;;;;;;21.03;32.78;99062.78;4900198;29;1825;-79
2022/10/05 07:56:37;;;;;;;;;;;;;;;20.99;32.67;99067.69;4844089;29;1504;-79
2022/10/05 07:59:06;;;;;;;;;;;;;;;20.91;32.57;99065.31;4863248;29;1240;-78
2022/10/05 08:01:35;;;;;;;;;;;;;;;20.99;32.66;99055.59;4875727;29;1425;-79
2022/10/05 08:04:20;;;;;;;;;;;;;;;21.17;32.11;99067.56;4900307;29;1233;-78
2022/10/05 08:07:02;;;;;;;;;;;;;;;20.89;32.81;99076.25;4900237;29;1032;-79
2022/10/05 08:09:36;;;;;;;;;;;;;;;21.06;32.16;99055.50;4900156;29;740;-79
2022/10/05 08:12:01;;;;;;;;;;;;;;;21.19;32.59;99065.13;4898961;29;1911;-79
2022/10/05 08:14:32;;;;;;;;;;;;;;;21.16;33.07;99065.94;4900105;29;1136;-79
2022/10/05 08:16:58;;;;;;;;;;;;;;;21.28;32.57;99073.94;4884592;29;788;-79
2022/10/05 08:19:28;;;;;;;;;;;;;;;21.19;32.49;99061.47;4900164;29;996;-79
2022/10/05 08:22:12;;;;;;;;;;;;;;;21.01;32.61;99068.06;4900260;29;828;-79
2022/10/05 08:24:44;;;;;;;;;;;;;;;21.07;32.59;99072.06;4895399;29;1481;-78
2022/10/05 08:27:19;;;;;;;;;;;;;;;21.00;32.55;99071.34;4900104;29;906;-79
2022/10/05 08:30:03;;;;;;;;;;;;;;;20.91;32.76;99077.44;4900121;29;1098;-79
2022/10/05 08:32:30;;;;;;;;;;;;;;;20.99;32.58;99067.69;4899831;29;1915;-79
2022/10/05 08:38:31;;;;;;;;;;;;;;;20.90;32.55;99070.19;4920832;29;1522;-79
2022/10/05 08:41:06;;;;;;;;;;;;;;;20.85;32.77;99072.66;4938900;29;1680;-79
2022/10/05 08:43:50;;;;;;;;;;;;;;;21.21;32.77;99059.84;4938671;29;775;-79
2022/10/05 08:46:34;;;;;;;;;;;;;;;21.30;32.77;99060.19;4939327;29;729;-79
2022/10/05 08:49:03;;;;;;;;;;;;;;;21.25;32.65;99057.78;4939767;29;732;-79
2022/10/05 08:51:52;;;;;;;;;;;;;;;21.07;32.58;99057.91;4938496;29;1974;-79
2022/10/05 08:54:17;;;;;;;;;;;;;;;20.92;32.60;99062.06;4879492;29;1416;-79
2022/10/05 08:57:01;;;;;;;;;;;;;;;20.96;32.55;99070.53;4884098;29;1517;-79
2022/10/05 08:59:53;;;;;;;;;;;;;;;20.97;32.72;99061.63;4886897;29;1272;-79
2022/10/05 09:02:27;;;;;;;;;;;;;;;20.84;33.13;99063.34;4814637;29;1456;-79
2022/10/05 09:04:52;;;;;;;;;;;;;;;20.81;32.71;99061.34;4816401;29;950;-79
2022/10/05 09:07:18;;;;;;;;;;;;;;;20.95;32.75;99061.25;4831668;29;969;-79
2022/10/05 09:09:49;;;;;;;;;;;;;;;20.84;33.14;99068.22;4831256;29;1056;-79
2022/10/05 09:12:17;;;;;;;;;;;;;;;20.98;32.40;99065.25;4831699;29;1915;-79
2022/10/05 09:15:01;;;;;;;;;;;;;;;21.21;33.14;99068.34;4830759;29;1518;-79
2022/10/05 09:17:27;;;;;;;;;;;;;;;21.26;33.14;99067.88;4831286;29;1008;-79
2022/10/05 09:19:59;;;;;;;;;;;;;;;21.23;32.77;99076.41;4831396;29;909;-79
2022/10/05 09:22:37;;;;;;;;;;;;;;;21.16;32.64;99070.81;4831689;29;804;-78
2022/10/05 09:25:21;;;;;;;;;;;;;;;21.18;32.33;99077.66;4813110;29;973;-79
2022/10/05 09:27:57;;;;;;;;;;;;;;;21.14;32.19;99074.06;4813094;29;805;-78
2022/10/05 09:30:26;;;;;;;;;;;;;;;21.01;32.43;99070.91;4807516;29;1505;-79
2022/10/05 09:33:12;;;;;;;;;;;;;;;20.89;32.80;99085.56;4830306;29;1903;-79
2022/10/05 09:35:49;;;;;;;;;;;;;;;20.86;32.78;99079.91;4830800;29;1546;-79
2022/10/05 09:38:53;;;;;;;;;;;;;;;20.75;33.04;99083.59;4841938;29;929;-79
2022/10/05 09:41:34;;;;;;;;;;;;;;;21.04;33.18;99089.91;4868222;29;805;-79
2022/10/05 09:44:18;;;;;;;;;;;;;;;21.22;32.56;99078.44;4868100;29;765;-79
2022/10/05 09:46:49;;;;;;;;;;;;;;;21.43;32.11;99076.66;4868045;29;1056;-80
2022/10/05 09:49:34;;;;;;;;;;;;;;;21.53;31.59;99075.78;4859217;29;1510;-79
2022/10/05 09:52:18;;;;;;;;;;;;;;;21.11;32.06;99069.22;4849524;29;1915;-79
2022/10/05 09:55:00;;;;;;;;;;;;;;;21.13;32.17;99072.44;4849245;29;1387;-79
2022/10/05 09:57:41;;;;;;;;;;;;;;;21.03;31.94;99078.97;4886600;29;724;-79
2022/10/05 10:00:07;;;;;;;;;;;;;;;20.88;32.28;99060.47;4886646;29;927;-79
2022/10/05 10:02:51;;;;;;;;;;;;;;;20.69;32.52;99065.47;4886549;29;709;-79
2022/10/05 10:05:23;;;;;;;;;;;;;;;20.74;32.33;99075.53;4886920;29;1081;-79
2022/10/05 10:07:55;;;;;;;;;;;;;;;20.76;32.14;99068.25;4883654;29;1606;-79
2022/10/05 10:10:42;;;;;;;;;;;;;;;20.65;32.03;99069.53;4883528;29;1073;-79
2022/10/05 10:13:14;;;;;;;;;;;;;;;20.82;31.70;99068.59;4919957;29;1918;-79
2022/10/05 10:15:49;;;;;;;;;;;;;;;20.74;31.94;99061.41;4931125;29;1858;-79
2022/10/05 10:18:15;;;;;;;;;;;;;;;20.75;32.68;99063.00;4920563;29;1517;-79
2022/10/05 10:20:40;;;;;;;;;;;;;;;21.36;31.60;99059.75;4920343;29;1511;-79
2022/10/05 10:23:21;;;;;;;;;;;;;;;21.41;31.11;99056.47;4921343;29;839;-80
2022/10/05 10:25:53;;;;;;;;;;;;;;;21.13;31.21;99061.09;4920985;29;795;-78
2022/10/05 10:28:34;;;;;;;;;;;;;;;20.84;31.76;99071.03;4920964;29;806;-79
2022/10/05 10:31:02;;;;;;;;;;;;;;;20.98;31.60;99065.25;4920714;29;863;-79
2022/10/05 10:33:43;;;;;;;;;;;;;;;20.79;31.58;99064.59;4921029;29;1197;-79
2022/10/05 10:36:11;;;;;;;;;;;;;;;20.74;31.68;99050.88;4931954;29;1562;-79
2022/10/05 10:38:46;;;;;;;;;;;;;;;20.65;32.06;99053.38;4905129;29;1115;-79
2022/10/05 10:41:29;;;;;;;;;;;;;;;20.84;31.89;99059.72;4901824;29;955;-79
2022/10/05 10:44:13;;;;;;;;;;;;;;;21.24;30.92;99049.69;4894247;29;817;-79
2022/10/05 10:46:38;;;;;;;;;;;;;;;21.25;30.68;99049.31;4883053;29;922;-79
2022/10/05 10:49:14;;;;;;;;;;;;;;;20.94;31.56;99053.19;4899217;29;1286;-79
2022/10/05 10:51:52;;;;;;;;;;;;;;;20.94;31.42;99047.53;4897664;29;1899;-79
2022/10/05 10:54:17;;;;;;;;;;;;;;;20.92;31.36;99033.78;4882883;29;808;-79
2022/10/05 11:00:20;;;;;;;;;;;;;;;20.69;31.68;99034.34;4883014;29;757;-78
2022/10/05 11:03:03;;;;;;;;;;;;;;;20.92;31.31;99038.63;4882916;29;809;-79
2022/10/05 11:05:34;;;;;;;;;;;;;;;21.12;30.83;99036.88;4882674;29;721;-78
2022/10/05 11:08:00;;;;;;;;;;;;;;;21.11;30.71;99029.59;4899048;29;1511;-79
2022/10/05 11:10:44;;;;;;;;;;;;;;;20.95;31.11;99041.44;4901372;29;1245;-79
2022/10/05 11:13:10;;;;;;;;;;;;;;;20.91;31.23;99034.19;4919132;29;1966;-77
2022/10/05 11:15:43;;;;;;;;;;;;;;;21.27;30.86;99038.34;4917327;29;1621;-76
2022/10/05 11:18:08;;;;;;;;;;;;;;;21.36;30.56;99028.63;4917322;29;1753;-77
2022/10/05 11:20:33;;;;;;;;;;;;;;;21.65;29.91;99021.41;4917076;29;1872;-75
2022/10/05 11:23:08;;;;;;;;;;;;;;;21.89;29.52;99015.91;4916010;29;1655;-77
2022/10/05 11:25:41;;;;;;;;;;;;;;;21.36;30.43;99005.97;4903369;29;1493;-79
2022/10/05 11:28:07;;;;;;;;;;;;;;;21.28;30.69;99011.66;4919681;29;1281;-79
2022/10/05 11:30:34;;;;;;;;;;;;;;;21.06;31.04;99010.25;4938302;29;913;-79
2022/10/05 11:33:10;;;;;;;;;;;;;;;21.02;30.97;99015.13;4922808;29;1984;-79
2022/10/05 11:35:53;;;;;;;;;;;;;;;20.98;31.02;99000.19;4924766;29;1581;-79
2022/10/05 11:38:38;;;;;;;;;;;;;;;20.79;31.15;99013.69;4918647;29;1711;-79
2022/10/05 11:41:16;;;;;;;;;;;;;;;20.75;31.56;99012.91;4919554;29;1254;-79
2022/10/05 11:44:00;;;;;;;;;;;;;;;20.72;31.40;99010.88;4918679;29;1284;-79
2022/10/05 11:46:32;;;;;;;;;;;;;;;20.71;31.23;99006.47;4919216;29;1149;-79
2022/10/05 11:49:10;;;;;;;;;;;;;;;20.91;30.74;99003.88;4935182;29;1176;-79
2022/10/05 11:51:54;;;;;;;;;;;;;;;21.31;30.59;99013.69;4918963;29;1910;-80
2022/10/05 11:54:19;;;;;;;;;;;;;;;21.33;30.56;99008.41;4938251;29;877;-79
2022/10/05 11:57:05;;;;;;;;;;;;;;;21.16;30.68;99019.88;4922217;29;763;-79
2022/10/05 12:00:05;;;;;;;;;;;;;;;20.99;30.74;99011.09;4922478;29;847;-79
2022/10/05 12:02:40;;;;;;;;;;;;;;;20.65;31.20;99005.28;4865364;29;1004;-79
2022/10/05 12:05:05;;;;;;;;;;;;;;;20.73;31.04;99004.03;4863141;29;934;-78
2022/10/05 12:07:34;;;;;;;;;;;;;;;20.84;30.75;99000.31;4871744;29;1531;-78
2022/10/05 12:10:16;;;;;;;;;;;;;;;20.91;30.98;99003.09;4844108;29;1341;-79
2022/10/05 12:12:48;;;;;;;;;;;;;;;20.94;30.87;99002.25;4844091;29;1973;-79
2022/10/05 12:15:19;;;;;;;;;;;;;;;21.32;30.11;98998.31;4829087;29;843;-79
2022/10/05 12:17:49;;;;;;;;;;;;;;;21.54;29.79;98990.38;4829129;29;1410;-79
2022/10/05 12:20:35;;;;;;;;;;;;;;;21.41;29.93;98982.88;4843840;29;900;-79
2022/10/05 12:23:03;;;;;;;;;;;;;;;21.11;30.45;98998.47;4788938;29;1562;-79
2022/10/05 12:25:32;;;;;;;;;;;;;;;20.94;31.00;98990.94;4764232;30;980;-79
2022/10/05 12:27:59;;;;;;;;;;;;;;;20.81;30.88;98999.91;4772316;30;1500;-79
2022/10/05 12:30:36;;;;;;;;;;;;;;;20.54;31.52;98996.09;4756571;30;1012;-78
2022/10/05 12:33:01;;;;;;;;;;;;;;;20.66;31.36;98995.59;4771961;30;1911;-79
2022/10/05 12:35:30;;;;;;;;;;;;;;;20.98;30.76;99003.00;4771614;30;1059;-79
2022/10/05 12:38:14;;;;;;;;;;;;;;;21.24;30.56;99005.25;4758558;29;875;-79
2022/10/05 12:41:03;;;;;;;;;;;;;;;21.01;30.37;99007.84;4820827;29;973;-79
2022/10/05 12:43:31;;;;;;;;;;;;;;;20.86;30.84;99006.34;4854205;29;1512;-78
2022/10/05 12:46:07;;;;;;;;;;;;;;;20.92;31.00;98999.84;4843989;29;806;-79
2022/10/05 12:48:33;;;;;;;;;;;;;;;20.96;30.60;99003.44;4859080;29;800;-79
2022/10/05 12:51:19;;;;;;;;;;;;;;;20.82;30.84;99006.38;4866648;29;926;-79
2022/10/05 12:53:53;;;;;;;;;;;;;;;21.03;30.85;99016.72;4862042;29;954;-78
2022/10/05 12:56:37;;;;;;;;;;;;;;;21.18;30.26;99018.22;4862058;29;769;-79
2022/10/05 12:59:13;;;;;;;;;;;;;;;21.28;30.02;99013.69;4881504;29;1223;-79
2022/10/05 13:01:47;;;;;;;;;;;;;;;21.13;30.35;99015.81;4935273;29;1336;-79
2022/10/05 13:04:16;;;;;;;;;;;;;;;21.12;30.25;99025.53;4919300;29;1216;-79
2022/10/05 13:07:05;;;;;;;;;;;;;;;20.87;30.71;99024.94;4935037;29;788;-79
2022/10/05 13:10:08;;;;;;;;;;;;;;;20.69;31.24;99039.22;4883898;29;1037;-79
2022/10/05 13:12:57;;;;;;;;;;;;;;;20.97;30.39;99024.06;4861088;29;1972;-79
2022/10/05 13:15:26;;;;;;;;;;;;;;;21.37;29.91;99024.56;4825662;29;956;-79
2022/10/05 13:17:55;;;;;;;;;;;;;;;21.49;29.77;99015.53;4795146;29;936;-79
2022/10/05 13:20:21;;;;;;;;;;;;;;;21.30;29.85;99014.91;4810066;29;1036;-79
2022/10/05 13:22:47;;;;;;;;;;;;;;;21.15;30.27;99010.56;4825484;29;902;-79
2022/10/05 13:25:12;;;;;;;;;;;;;;;21.17;30.27;99010.94;4809760;29;1530;-79
2022/10/05 13:27:44;;;;;;;;;;;;;;;20.77;30.94;99013.28;4825186;29;917;-78
2022/10/05 13:30:10;;;;;;;;;;;;;;;20.86;30.85;99012.00;4810152;29;957;-79
2022/10/05 13:32:37;;;;;;;;;;;;;;;20.91;30.56;99011.56;4825355;29;1915;-79
2022/10/05 13:35:18;;;;;;;;;;;;;;;21.03;30.63;98999.75;4810238;29;757;-79
2022/10/05 13:37:55;;;;;;;;;;;;;;;21.26;30.13;98999.16;4825096;29;923;-79
2022/10/05 13:40:21;;;;;;;;;;;;;;;21.02;30.60;99000.97;4809651;29;1483;-79
2022/10/05 13:42:47;;;;;;;;;;;;;;;20.97;30.35;98996.56;4820873;29;1220;-78
2022/10/05 13:45:14;;;;;;;;;;;;;;;20.93;30.59;98997.81;4834582;29;1149;-79
2022/10/05 13:47:52;;;;;;;;;;;;;;;20.74;31.03;98997.16;4850173;29;910;-78
2022/10/05 13:50:29;;;;;;;;;;;;;;;20.92;30.58;99004.69;4865158;29;812;-78
2022/10/05 13:53:00;;;;;;;;;;;;;;;20.98;30.64;98997.34;4912011;29;1984;-79